Terminal Aerodrome Forecast
Issued by NWS Omaha/Valley, NE

Home | Current Version | Previous Version | Text Only | Print | Product List | Glossary On
Versions: 1 2 3 4 5 6 7 8 9 10 11 12 13 14 15 16 17 18 19 20 21 22 23 24 25 26 27 28 29 30
000
FTUS43 KOAX 212029 AAA
TAFOFK
TAF AMD
KOFK 212029Z 2120/2218 13016G25KT 6SM HZ OVC015
      TEMPO 2200/2204 4SM -FZDZ OVC007
     FM220400 11014KT 4SM -FZDZ BR OVC007
     FM220800 08010KT 2SM -FZRASN BR OVC005
     FM221100 01012KT 1 1/2SM -SN OVC008
     FM221400 35024G30KT 1/2SM SN BLSN OVC008=

USA.gov is the U.S. government's official web portal to all federal, state and local government web resources and services.